Time;durP1;ratioP1;P1;durP2;ratioP2;P2;SDS_P1;SDS_P2;PMS_P1;PMS_P2;Temp;Humidity;BMP_temperature;BMP_pressure;BME280_temperature;BME280_humidity;BME280_pressure;Samples;Min_cycle;Max_cycle;Signal;HPM_P1;HPM_P2
2022/06/16 00:01:24;;;;;;;6.25;1.65;;;;;;;-147.53;100.00;57128.34;10322873;28;20082;-72
2022/06/16 00:06:26;;;;;;;5.75;2.25;;;;;;;-147.53;100.00;57128.34;10323532;28;20113;-72
2022/06/16 00:11:27;;;;;;;6.55;1.30;;;;;;;-147.53;100.00;57128.34;10323714;28;20047;-72
2022/06/16 00:16:29;;;;;;;6.78;1.58;;;;;;;-147.53;100.00;57128.34;10328625;28;20046;-72
2022/06/16 00:21:31;;;;;;;5.93;1.33;;;;;;;-147.53;100.00;57128.34;10322976;28;20844;-71
2022/06/16 00:26:32;;;;;;;4.38;1.40;;;;;;;-147.53;100.00;57128.34;10323189;28;20053;-73
2022/06/16 00:31:35;;;;;;;3.25;1.13;;;;;;;-147.53;100.00;57128.34;10320089;28;20108;-71
2022/06/16 00:36:38;;;;;;;5.75;1.70;;;;;;;-147.53;100.00;57128.34;10315584;28;20043;-72
2022/06/16 00:41:40;;;;;;;6.95;1.50;;;;;;;-147.53;100.00;57128.34;10308671;28;20054;-73
2022/06/16 00:46:41;;;;;;;5.25;1.63;;;;;;;-147.53;100.00;57128.34;10327182;28;20584;-73
2022/06/16 00:51:47;;;;;;;4.70;1.30;;;;;;;-147.53;100.00;57128.34;10332142;28;20141;-72
2022/06/16 00:56:51;;;;;;;5.85;1.40;;;;;;;-147.53;100.00;57128.34;10314842;28;20034;-72
2022/06/16 01:01:53;;;;;;;5.65;1.58;;;;;;;-147.53;100.00;57128.34;10348228;28;20407;-73
2022/06/16 01:06:57;;;;;;;3.38;1.30;;;;;;;-147.53;100.00;57128.34;10327155;28;20042;-73
2022/06/16 01:18:24;;;;;;;3.88;1.50;;;;;;;-147.53;100.00;57128.34;10190156;29;20573;-73
2022/06/16 01:23:31;;;;;;;6.40;2.13;;;;;;;-147.53;100.00;57128.34;10292437;28;20046;-72
2022/06/16 01:29:06;;;;;;;5.28;1.70;;;;;;;-147.53;100.00;57128.34;10312931;28;20050;-72
2022/06/16 01:34:17;;;;;;;3.17;1.48;;;;;;;-147.53;100.00;57128.34;10328824;28;20048;-72
2022/06/16 01:39:37;;;;;;;5.70;1.60;;;;;;;-147.53;100.00;57128.34;10326094;28;20050;-72
2022/06/16 01:44:44;;;;;;;4.27;1.27;;;;;;;-147.53;100.00;57128.34;10320815;28;20046;-73
2022/06/16 01:49:57;;;;;;;6.07;1.63;;;;;;;-147.53;100.00;57128.34;10301727;28;20483;-72
2022/06/16 01:55:07;;;;;;;3.80;1.50;;;;;;;-147.53;100.00;57128.34;10300437;28;20053;-72
2022/06/16 02:00:15;;;;;;;3.65;1.65;;;;;;;-147.53;100.00;57128.34;10306762;28;20089;-72
2022/06/16 02:05:28;;;;;;;4.00;1.40;;;;;;;-147.53;100.00;57128.34;10325145;28;20038;-72
2022/06/16 02:10:34;;;;;;;;;;;;;;;-147.53;100.00;57128.34;10331232;28;20073;-72
2022/06/16 02:16:06;;;;;;;3.35;1.52;;;;;;;-147.53;100.00;57128.34;10300105;28;19921;-73
2022/06/16 02:21:30;;;;;;;3.63;1.50;;;;;;;-147.53;100.00;57128.34;10301600;28;20105;-72
2022/06/16 02:26:33;;;;;;;5.05;1.58;;;;;;;-147.53;100.00;57128.34;10302470;28;20050;-72
2022/06/16 02:31:46;;;;;;;6.35;1.60;;;;;;;10.18;nan;98322.56;10317603;28;20128;-72
2022/06/16 02:36:56;;;;;;;5.22;1.65;;;;;;;10.04;nan;98274.91;10299754;28;20490;-72
2022/06/16 02:42:18;;;;;;;5.53;1.50;;;;;;;10.09;nan;98304.44;10298683;28;20050;-72
2022/06/16 02:47:48;;;;;;;8.27;2.00;;;;;;;10.03;nan;98287.13;10314550;28;20050;-72
2022/06/16 02:53:02;;;;;;;5.30;2.03;;;;;;;10.05;nan;98289.69;10288772;28;20101;-73
2022/06/16 02:58:09;;;;;;;6.70;2.17;;;;;;;10.09;nan;98315.75;10298399;28;20050;-72
2022/06/16 03:03:26;;;;;;;7.88;2.33;;;;;;;10.05;nan;98303.63;10330037;28;20045;-72
2022/06/16 03:08:42;;;;;;;4.43;2.22;;;;;;;10.02;nan;98301.06;10287202;28;20050;-72
2022/06/16 03:13:46;;;;;;;;;;;;;;;9.98;nan;98286.34;10298342;28;20081;-73
2022/06/16 03:18:59;;;;;;;5.53;2.22;;;;;;;9.98;nan;98296.78;10298770;28;20024;-73
2022/06/16 03:24:04;;;;;;;10.98;3.08;;;;;;;10.06;nan;98328.03;10291422;28;20084;-72
2022/06/16 03:29:07;;;;;;;8.70;2.90;;;;;;;10.12;nan;98354.06;10297764;28;20105;-73
2022/06/16 03:34:09;;;;;;;9.60;3.15;;;;;;;10.15;nan;98374.03;10304912;28;20144;-73
2022/06/16 03:39:11;;;;;;;9.00;2.85;;;;;;;10.19;nan;98388.78;10313311;28;20137;-72
2022/06/16 03:44:22;;;;;;;10.70;3.00;;;;;;;10.27;nan;98432.19;10305708;28;20517;-72
2022/06/16 03:49:24;;;;;;;8.80;3.00;;;;;;;10.30;nan;98441.75;10306000;28;20104;-73
2022/06/16 03:54:26;;;;;;;11.05;3.15;;;;;;;10.36;nan;98473.06;10309433;28;20084;-73
2022/06/16 03:59:35;;;;;;;7.07;2.70;;;;;;;10.37;nan;98480.03;10306726;28;20133;-73
2022/06/16 04:04:53;;;;;;;10.25;2.67;;;;;;;10.51;nan;98539.06;10331558;28;20065;-74
2022/06/16 04:09:55;;;;;;;6.50;2.90;;;;;;;10.65;nan;98599.84;10337421;28;20084;-73
2022/06/16 04:14:57;;;;;;;7.45;3.00;;;;;;;10.73;nan;98633.75;10321031;28;20065;-72
2022/06/16 04:20:13;;;;;;;10.75;3.10;;;;;;;10.73;nan;98646.81;10350266;28;20052;-71
2022/06/16 04:25:32;;;;;;;10.52;3.17;;;;;;;10.74;nan;98648.56;10327023;28;20096;-73
2022/06/16 04:30:43;;;;;;;6.95;2.95;;;;;;;10.77;nan;98669.44;10335167;28;20042;-73
2022/06/16 04:35:46;;;;;;;7.93;3.30;;;;;;;10.90;nan;98722.44;10350003;28;20057;-72
2022/06/16 04:40:51;;;;;;;7.85;2.92;;;;;;;11.00;nan;98776.41;10342997;28;20053;-73
2022/06/16 04:45:52;;;;;;;6.53;3.20;;;;;;;11.10;nan;98827.75;10323817;28;20033;-73
2022/06/16 04:50:58;;;;;;;9.48;3.92;;;;;;;11.26;nan;98883.38;10324520;28;20055;-72
2022/06/16 04:56:02;;;;;;;12.73;3.50;;;;;;;11.43;nan;98961.72;10325119;28;20054;-73
2022/06/16 05:01:15;;;;;;;9.85;4.00;;;;;;;11.65;nan;99050.53;10336698;28;20050;-73
2022/06/16 05:06:44;;;;;;;10.50;3.20;;;;;;;11.95;nan;99177.72;10327871;28;20050;-74
2022/06/16 05:11:56;;;;;;;11.75;3.50;;;;;;;12.27;nan;99309.34;10349568;28;20097;-74
2022/06/16 05:17:12;;;;;;;7.10;3.03;;;;;;;12.60;nan;99451.56;10336453;28;20104;-74
2022/06/16 05:22:33;;;;;;;7.28;3.25;;;;;;;12.95;nan;99600.84;10331719;28;20502;-74
2022/06/16 05:28:05;;;;;;;7.40;2.83;;;;;;;13.27;nan;99729.28;10321249;28;20680;-75
2022/06/16 05:33:16;;;;;;;6.22;2.00;;;;;;;13.59;nan;99866.59;10330558;28;20125;-74
2022/06/16 05:38:30;;;;;;;4.70;1.75;;;;;;;14.09;nan;100077.53;10300009;28;20133;-75
2022/06/16 05:43:49;;;;;;;2.53;1.40;;;;;;;14.71;nan;100340.44;10301676;28;20034;-73
2022/06/16 05:49:15;;;;;;;4.97;1.40;;;;;;;14.71;nan;100340.44;10325676;28;20050;-74
2022/06/16 05:54:19;;;;;;;8.20;1.90;;;;;;;15.23;nan;100563.34;10299687;28;20053;-74
2022/06/16 05:59:22;;;;;;;4.57;1.60;;;;;;;15.40;nan;100631.84;10301338;28;20443;-74
2022/06/16 06:04:25;;;;;;;6.55;2.20;;;;;;;15.50;nan;100687.19;10300380;28;20613;-74
2022/06/16 06:20:12;;;;;;;8.43;1.30;;;;;;;16.71;nan;101216.03;10313430;28;20053;-77
2022/06/16 06:25:18;;;;;;;5.53;1.63;;;;;;;16.95;nan;101314.78;10336768;28;20042;-78
2022/06/16 06:30:22;;;;;;;5.82;1.50;;;;;;;16.86;nan;101283.88;10329135;28;20054;-78
2022/06/16 06:35:26;;;;;;;9.32;1.20;;;;;;;16.81;nan;101260.97;10339891;28;20046;-78
2022/06/16 06:40:31;;;;;;;4.75;1.50;;;;;;;17.02;nan;101353.53;10316319;28;20414;-77
2022/06/16 06:45:34;;;;;;;3.15;1.20;;;;;;;17.33;nan;101488.50;10304222;28;20045;-75
2022/06/16 06:50:38;;;;;;;4.03;1.05;;;;;;;18.06;nan;101796.75;10335644;28;20052;-75
2022/06/16 06:55:43;;;;;;;6.93;1.30;;;;;;;18.72;nan;102079.78;10324313;28;20811;-78
2022/06/16 07:00:53;;;;;;;2.92;1.17;;;;;;;18.85;nan;102145.28;10319477;28;20562;-77
2022/06/16 07:05:56;;;;;;;5.55;1.20;;;;;;;18.99;nan;102205.50;10315970;28;20050;-77
2022/06/16 07:10:58;;;;;;;3.05;0.75;;;;;;;18.97;nan;102197.53;10315650;28;20591;-76
2022/06/16 07:16:00;;;;;;;5.70;1.50;;;;;;;18.90;nan;102167.44;10315620;28;20596;-76
2022/06/16 07:21:02;;;;;;;6.47;1.10;;;;;;;18.50;nan;101981.53;10320935;28;20060;-76
2022/06/16 07:26:03;;;;;;;5.55;1.33;;;;;;;18.45;nan;101961.19;10318329;28;20521;-76
2022/06/16 07:31:05;;;;;;;4.40;1.17;;;;;;;18.43;nan;101950.56;10315675;28;20050;-78
2022/06/16 07:36:27;;;;;;;2.50;0.77;;;;;;;19.68;nan;102490.09;10316109;28;20446;-77
2022/06/16 07:41:31;;;;;;;3.00;0.70;;;;;;;19.57;nan;102434.19;10323678;28;20058;-78
2022/06/16 07:46:33;;;;;;;10.63;2.15;;;;;;;20.10;nan;102657.84;10322367;28;20053;-77
2022/06/16 07:51:35;;;;;;;7.28;1.95;;;;;;;20.71;nan;102928.84;10317250;28;20070;-78
2022/06/16 07:56:42;;;;;;;2.17;0.77;;;;;;;21.14;nan;103110.34;10317820;28;20050;-78
2022/06/16 08:01:44;;;;;;;3.40;0.80;;;;;;;21.31;nan;103182.44;10321438;28;20406;-78
2022/06/16 08:06:46;;;;;;;5.30;0.70;;;;;;;21.31;nan;103162.91;10329742;28;20046;-77
2022/06/16 08:12:09;;;;;;;4.35;1.00;;;;;;;21.32;nan;103162.03;10316635;28;20493;-76
2022/06/16 08:17:27;;;;;;;3.80;0.68;;;;;;;21.02;nan;103019.66;10314630;28;20742;-75
2022/06/16 08:22:29;;;;;;;2.67;0.80;;;;;;;21.50;nan;103222.66;10328715;28;20065;-76
2022/06/16 08:27:35;;;;;;;1.95;0.70;;;;;;;21.41;nan;103171.84;10329143;28;20042;-76
2022/06/16 08:32:37;;;;;;;2.42;0.80;;;;;;;21.99;nan;103425.84;10335295;28;20049;-74
2022/06/16 08:37:39;;;;;;;5.43;1.05;;;;;;;22.52;nan;103648.88;10336049;28;20044;-76
2022/06/16 08:42:52;;;;;;;3.63;0.90;;;;;;;23.05;nan;103871.25;10321497;28;20074;-75
2022/06/16 08:48:20;;;;;;;1.90;0.77;;;;;;;22.85;nan;103773.03;10341648;28;20064;-76
2022/06/16 08:53:39;;;;;;;3.28;0.98;;;;;;;22.68;nan;103684.66;10317657;28;20678;-75
2022/06/16 08:58:53;;;;;;;2.70;0.60;;;;;;;22.45;nan;103574.91;10316550;28;20050;-76
2022/06/16 09:04:10;;;;;;;3.47;0.88;;;;;;;22.71;nan;103676.72;10320340;28;20070;-77
2022/06/16 09:10:19;;;;;;;3.17;0.60;;;;;;;22.81;nan;103707.09;10326574;28;20074;-77
2022/06/16 09:15:22;;;;;;;5.78;0.70;;;;;;;23.22;nan;103876.84;10296326;28;20042;-75
2022/06/16 09:20:30;;;;;;;1.85;0.60;;;;;;;22.91;nan;103725.03;10316729;28;20461;-77
2022/06/16 09:25:45;;;;;;;1.40;0.60;;;;;;;23.29;nan;103878.72;10318718;28;20053;-77
2022/06/16 09:30:50;;;;;;;4.53;0.80;;;;;;;23.62;nan;104005.72;10301624;28;20050;-79
2022/06/16 09:36:03;;;;;;;2.28;0.82;;;;;;;23.98;nan;104146.28;10329912;28;20046;-78
2022/06/16 09:46:40;;;;;;;3.38;0.85;;;;;;;24.39;nan;104303.91;10327732;28;20120;-79
2022/06/16 09:51:50;;;;;;;1.98;0.80;;;;;;;24.57;nan;104367.56;10319716;28;20061;-79
2022/06/16 09:57:01;;;;;;;2.58;0.88;;;;;;;24.28;nan;104222.53;10309835;28;20042;-77
2022/06/16 10:02:10;;;;;;;3.22;0.85;;;;;;;24.35;nan;104227.13;10288972;28;20054;-77
2022/06/16 10:07:15;;;;;;;3.83;0.82;;;;;;;24.02;nan;104067.84;10298040;28;20046;-76
2022/06/16 10:12:31;;;;;;;2.60;0.80;;;;;;;23.95;nan;104029.38;10308407;28;20046;-78
2022/06/16 10:17:34;;;;;;;3.50;0.70;;;;;;;24.06;nan;104058.03;10310068;28;20066;-77
2022/06/16 10:22:39;;;;;;;3.08;0.70;;;;;;;24.22;nan;104115.38;10324837;28;20038;-77
2022/06/16 10:27:46;;;;;;;2.30;0.80;;;;;;;24.63;nan;104279.28;10321211;28;20046;-77
2022/06/16 10:33:09;;;;;;;1.77;0.80;;;;;;;24.65;nan;104265.91;10313619;28;20058;-77
2022/06/16 10:38:11;;;;;;;1.52;0.70;;;;;;;24.72;nan;104278.50;10332594;28;20409;-77
2022/06/16 10:43:16;;;;;;;2.03;0.68;;;;;;;25.13;nan;104449.72;10304904;28;20046;-77
2022/06/16 10:48:28;;;;;;;4.72;0.93;;;;;;;24.87;nan;104318.88;10335077;28;20046;-77
2022/06/16 10:53:38;;;;;;;3.50;0.93;;;;;;;24.38;nan;104087.88;10280380;28;20662;-77
2022/06/16 10:58:56;;;;;;;4.20;0.93;;;;;;;24.85;nan;104276.91;10295787;28;20046;-78
2022/06/16 11:04:16;;;;;;;4.88;0.90;;;;;;;24.65;nan;104174.81;10305716;28;20045;-79
2022/06/16 11:09:22;;;;;;;4.00;0.73;;;;;;;24.59;nan;104122.09;10303404;28;20112;-77
2022/06/16 11:14:34;;;;;;;2.03;0.77;;;;;;;24.55;nan;104095.22;10315399;28;20069;-77
2022/06/16 11:19:47;;;;;;;6.90;1.10;;;;;;;24.86;nan;104212.59;10315087;28;20418;-78
2022/06/16 11:25:20;;;;;;;4.20;1.20;;;;;;;24.50;nan;104037.13;10319727;28;20513;-77
2022/06/16 11:30:41;;;;;;;4.40;1.10;;;;;;;24.65;nan;104091.75;10294145;28;20533;-78
2022/06/16 11:35:56;;;;;;;9.43;0.90;;;;;;;24.56;nan;104038.97;10296064;28;20090;-77
2022/06/16 11:41:04;;;;;;;4.82;1.10;;;;;;;24.94;nan;104182.28;10306397;28;20046;-78
2022/06/16 11:46:14;;;;;;;5.60;1.30;;;;;;;25.08;nan;104228.00;10303784;28;20046;-76
2022/06/16 11:51:18;;;;;;;3.25;1.00;;;;;;;24.61;nan;104014.94;10332470;28;20077;-76
2022/06/16 11:56:42;;;;;;;7.27;1.47;;;;;;;24.43;nan;103933.50;10326811;28;20159;-77
2022/06/16 12:01:50;;;;;;;4.00;1.08;;;;;;;24.47;nan;103931.72;10338948;28;20053;-76
2022/06/16 12:07:15;;;;;;;6.67;0.83;;;;;;;24.76;nan;104033.81;10356528;28;20052;-75
2022/06/16 12:12:26;;;;;;;4.25;1.20;;;;;;;24.58;nan;103955.94;10349593;28;20038;-75
2022/06/16 12:17:36;;;;;;;4.85;1.30;;;;;;;24.24;nan;103797.66;10322366;28;20046;-76
2022/06/16 12:22:59;;;;;;;3.70;1.40;;;;;;;24.00;nan;103677.06;10322137;28;20121;-75
2022/06/16 12:28:19;;;;;;;3.33;1.48;;;;;;;24.26;nan;103783.41;10326864;28;20046;-74
2022/06/16 12:33:36;;;;;;;5.30;1.10;;;;;;;24.18;nan;103742.28;10322038;28;20069;-76
2022/06/16 12:38:51;;;;;;;3.10;1.15;;;;;;;23.98;nan;103635.13;10322463;28;20054;-76
2022/06/16 12:44:02;;;;;;;3.97;1.10;;;;;;;24.19;nan;103717.31;10328053;28;20061;-75
2022/06/16 12:49:13;;;;;;;4.20;1.20;;;;;;;24.79;nan;103966.84;10321941;28;20506;-76
2022/06/16 12:54:23;;;;;;;6.80;1.42;;;;;;;25.03;nan;104059.06;10298756;28;20038;-76
2022/06/16 12:59:31;;;;;;;7.47;1.60;;;;;;;25.27;nan;104156.69;10325368;28;20050;-76
2022/06/16 13:04:34;;;;;;;3.67;1.48;;;;;;;25.61;nan;104291.13;10304142;28;20649;-76
2022/06/16 13:09:35;;;;;;;2.38;1.20;;;;;;;25.74;nan;104338.66;10327133;28;20050;-76
2022/06/16 13:14:42;;;;;;;3.28;1.38;;;;;;;24.85;nan;103956.19;10320936;28;20039;-76
2022/06/16 13:19:54;;;;;;;6.78;1.58;;;;;;;24.00;nan;103582.50;10322987;28;20781;-75
2022/06/16 13:24:59;;;;;;;3.13;1.10;;;;;;;23.74;nan;103459.28;10322804;28;20050;-75
2022/06/16 13:30:21;;;;;;;4.18;1.10;;;;;;;24.63;nan;103834.56;10332239;28;20142;-77
2022/06/16 13:35:23;;;;;;;8.05;1.15;;;;;;;25.34;nan;104123.69;10357264;28;20349;-75
2022/06/16 13:40:28;;;;;;;4.97;1.33;;;;;;;24.74;nan;103858.75;10336312;28;20065;-76
2022/06/16 13:45:30;;;;;;;6.05;1.48;;;;;;;23.99;nan;103541.47;10351668;28;20053;-76
2022/06/16 13:50:55;;;;;;;2.92;1.23;;;;;;;24.29;nan;103662.94;10338661;28;20056;-73
2022/06/16 13:56:11;;;;;;;5.05;1.30;;;;;;;23.81;nan;103456.63;10335794;28;20054;-74
2022/06/16 14:01:33;;;;;;;5.07;1.45;;;;;;;23.73;nan;103407.53;10342272;28;20049;-74
2022/06/16 14:06:37;;;;;;;4.95;1.40;;;;;;;23.97;nan;103505.75;10348052;28;20050;-74
2022/06/16 14:12:11;;;;;;;6.63;1.67;;;;;;;23.93;nan;103481.66;10354561;28;20057;-74
2022/06/16 14:17:42;;;;;;;2.55;1.10;;;;;;;24.41;nan;103678.19;10332446;28;20104;-75
2022/06/16 14:22:46;;;;;;;3.42;1.35;;;;;;;24.66;nan;103780.09;10315999;28;20541;-74
2022/06/16 14:27:59;;;;;;;4.07;1.55;;;;;;;25.08;nan;103950.06;10350499;28;20045;-75
2022/06/16 14:33:16;;;;;;;6.32;1.70;;;;;;;25.25;nan;104011.84;10344135;28;20421;-76
2022/06/16 14:38:20;;;;;;;4.70;1.20;;;;;;;25.45;nan;104094.28;10362266;28;20048;-77
2022/06/16 14:43:27;;;;;;;11.40;1.63;;;;;;;24.42;nan;103661.22;10362840;28;20554;-77
2022/06/16 14:48:45;;;;;;;6.00;1.10;;;;;;;23.98;nan;103463.84;10355205;28;20046;-76
2022/06/16 14:54:12;;;;;;;4.43;1.35;;;;;;;24.08;nan;103508.50;10348260;28;20034;-77
2022/06/16 14:59:21;;;;;;;2.65;1.35;;;;;;;24.81;nan;103800.72;10317854;28;20158;-75
2022/06/16 15:04:26;;;;;;;9.27;1.60;;;;;;;24.39;nan;103617.47;10341603;28;20070;-75
2022/06/16 15:09:41;;;;;;;11.95;1.85;;;;;;;24.74;nan;103761.38;10350227;28;20132;-77
2022/06/16 15:14:46;;;;;;;3.85;1.20;;;;;;;24.62;nan;103709.56;10349498;28;20041;-76
2022/06/16 15:19:50;;;;;;;3.40;1.60;;;;;;;24.77;nan;103767.69;10350281;28;20093;-75
2022/06/16 15:24:58;;;;;;;19.63;1.63;;;;;;;24.95;nan;103835.63;10339341;28;20048;-73
2022/06/16 15:30:08;;;;;;;6.05;1.65;;;;;;;24.83;nan;103782.84;10340513;28;20144;-76
2022/06/16 15:40:40;;;;;;;4.60;1.88;;;;;;;24.98;nan;103838.31;10347806;28;20035;-80
2022/06/16 15:45:52;;;;;;;6.38;1.95;;;;;;;24.90;nan;103795.41;10355505;28;20045;-77
2022/06/16 15:50:56;;;;;;;6.60;1.70;;;;;;;24.94;nan;103809.72;10332841;28;20529;-76
2022/06/16 15:55:58;;;;;;;3.83;1.40;;;;;;;25.36;nan;103977.09;10322361;28;20061;-79
2022/06/16 16:01:06;;;;;;;6.75;1.55;;;;;;;24.62;nan;103660.41;10358346;28;20042;-81
2022/06/16 16:06:08;;;;;;;5.30;1.70;;;;;;;24.73;nan;103706.03;10349774;28;20050;-83
2022/06/16 16:11:37;;;;;;;6.32;1.50;;;;;;;24.80;nan;103726.56;10340529;28;20749;-82
2022/06/16 16:16:55;;;;;;;9.38;2.20;;;;;;;23.80;nan;103309.50;10331281;28;20041;-78
2022/06/16 16:22:06;;;;;;;5.30;1.80;;;;;;;24.00;nan;103393.41;10345514;28;20691;-77
2022/06/16 16:27:13;;;;;;;5.13;1.70;;;;;;;24.23;nan;103482.66;10355744;28;20053;-76
2022/06/16 16:32:15;;;;;;;5.80;1.70;;;;;;;24.22;nan;103475.53;10353517;28;20136;-79
2022/06/16 16:37:19;;;;;;;6.22;1.77;;;;;;;24.35;nan;103525.53;10319563;28;20483;-80
2022/06/16 16:48:00;;;;;;;5.65;1.65;;;;;;;23.78;nan;103285.41;10372805;28;20088;-79
2022/06/16 16:53:24;;;;;;;7.05;1.70;;;;;;;23.08;nan;102998.38;10345794;28;20045;-72
2022/06/16 16:58:26;;;;;;;5.68;1.40;;;;;;;22.52;nan;102761.63;10335935;28;20041;-78
2022/06/16 17:03:29;;;;;;;5.97;1.65;;;;;;;22.26;nan;102655.78;10363902;28;20056;-79
2022/06/16 17:08:30;;;;;;;8.93;1.70;;;;;;;22.42;nan;102712.72;10348144;28;20068;-79
2022/06/16 17:13:34;;;;;;;8.43;2.13;;;;;;;22.42;nan;102713.59;10378510;28;20045;-81
2022/06/16 17:18:36;;;;;;;3.58;1.52;;;;;;;22.32;nan;102677.16;10374050;28;20528;-78
2022/06/16 17:23:37;;;;;;;4.07;1.35;;;;;;;22.21;nan;102637.13;10363264;28;20122;-78
2022/06/16 17:28:39;;;;;;;5.40;1.85;;;;;;;22.34;nan;102682.47;10367460;28;20048;-79
2022/06/16 17:33:43;;;;;;;5.93;1.60;;;;;;;22.00;nan;102549.16;10385062;28;20050;-80
2022/06/16 17:38:46;;;;;;;8.75;2.08;;;;;;;22.11;nan;102590.00;10373581;28;20129;-82
2022/06/16 17:43:49;;;;;;;4.93;1.63;;;;;;;21.90;nan;102508.28;10345508;28;20579;-81
2022/06/16 17:48:57;;;;;;;6.00;1.98;;;;;;;21.46;nan;102320.03;10333311;28;20729;-77
2022/06/16 18:04:39;;;;;;;5.32;1.88;;;;;;;20.46;nan;101924.66;10341073;28;20085;-75
2022/06/16 18:09:42;;;;;;;8.82;1.98;;;;;;;20.22;nan;101838.84;10318319;28;20451;-75
2022/06/16 18:14:45;;;;;;;6.53;1.80;;;;;;;20.03;nan;101746.81;10323752;28;20061;-76
2022/06/16 18:19:47;;;;;;;7.28;2.08;;;;;;;19.77;nan;101647.75;10337910;28;20073;-75
2022/06/16 18:24:52;;;;;;;6.43;2.30;;;;;;;19.55;nan;101556.66;10339176;28;20100;-73
2022/06/16 18:29:57;;;;;;;4.13;1.90;;;;;;;19.49;nan;101547.88;10339834;28;20050;-73
2022/06/16 18:34:59;;;;;;;5.28;2.10;;;;;;;19.35;nan;101493.09;10313423;28;20046;-74
2022/06/16 18:40:01;;;;;;;8.60;2.55;;;;;;;19.19;nan;101436.56;10342174;28;20114;-73
2022/06/16 18:45:05;;;;;;;7.25;2.20;;;;;;;19.03;nan;101363.28;10342866;28;20096;-73
2022/06/16 18:50:13;;;;;;;8.77;2.03;;;;;;;19.05;nan;101378.31;10347679;28;21513;-72
2022/06/16 18:55:16;;;;;;;11.00;2.25;;;;;;;19.08;nan;101385.38;10331131;28;20438;-72
2022/06/16 19:00:20;;;;;;;3.83;1.80;;;;;;;19.00;nan;101363.31;10351452;28;20052;-73
2022/06/16 19:05:23;;;;;;;6.22;1.88;;;;;;;;;;10325692;28;20056;-73
2022/06/16 19:10:29;;;;;;;5.50;1.85;;;;;;;;;;10342646;28;20104;-73
2022/06/16 19:15:33;;;;;;;7.18;1.90;;;;;;;;;;10323525;28;20042;-73
2022/06/16 19:20:42;;;;;;;6.85;1.90;;;;;;;;;;10324070;28;20835;-73
2022/06/16 19:25:44;;;;;;;7.25;1.98;;;;;;;;;;10341011;28;20052;-72
2022/06/16 19:30:46;;;;;;;5.60;1.83;;;;;;;;;;10340499;28;20052;-73
2022/06/16 19:35:49;;;;;;;6.47;1.73;;;;;;;;;;10305615;28;20121;-70
2022/06/16 19:40:52;;;;;;;8.77;2.00;;;;;;;;;;10317569;28;20525;-70
2022/06/16 19:51:15;;;;;;;4.43;1.85;;;;;;;;;;10318765;28;20533;-71
2022/06/16 19:56:19;;;;;;;7.90;2.08;;;;;;;17.59;nan;100844.22;10326232;28;20038;-69
2022/06/16 20:01:21;;;;;;;6.82;2.30;;;;;;;17.39;nan;100759.75;10339088;28;20071;-71
2022/06/16 20:06:23;;;;;;;7.10;2.10;;;;;;;17.24;nan;100707.88;10349931;28;20151;-71
2022/06/16 20:11:24;;;;;;;6.40;2.10;;;;;;;17.07;nan;100650.72;10314989;28;20051;-71
2022/06/16 20:16:26;;;;;;;6.93;2.10;;;;;;;16.95;nan;100612.06;10322963;28;20517;-69
2022/06/16 20:21:28;;;;;;;7.53;1.67;;;;;;;16.86;nan;100571.59;10322014;28;20065;-70
2022/06/16 20:26:30;;;;;;;5.13;2.03;;;;;;;16.60;nan;100472.34;10322662;28;20069;-70
2022/06/16 20:31:32;;;;;;;7.47;2.15;;;;;;;16.38;nan;100389.84;10321896;28;20056;-71
2022/06/16 20:36:34;;;;;;;7.53;2.05;;;;;;;16.11;nan;100285.41;10322564;28;20584;-70
2022/06/16 20:46:57;;;;;;;7.53;2.47;;;;;;;15.90;nan;100210.88;10317713;28;20046;-71
2022/06/16 20:52:00;;;;;;;5.22;2.50;;;;;;;15.85;nan;100203.03;10322140;28;20057;-71
2022/06/16 21:01:53;;;;;;;5.97;2.42;;;;;;;15.81;nan;100193.41;10321811;28;20042;-71
2022/06/16 21:02:26;;;;;;;9.57;2.22;;;;;;;15.80;nan;100182.88;10321436;28;20046;-71
2022/06/16 21:07:28;;;;;;;5.05;2.03;;;;;;;15.64;nan;100135.56;10303573;28;20070;-71
2022/06/16 21:12:30;;;;;;;8.30;2.40;;;;;;;15.58;nan;100114.50;10321010;28;20050;-71
2022/06/16 21:17:32;;;;;;;7.22;2.55;;;;;;;15.36;nan;100033.03;10320797;28;20082;-71
2022/06/16 21:22:41;;;;;;;7.72;2.58;;;;;;;15.24;nan;99991.03;10319739;28;20449;-70
2022/06/16 21:27:43;;;;;;;6.40;2.67;;;;;;;15.04;nan;99917.47;10297362;28;20034;-71
2022/06/16 21:32:45;;;;;;;8.77;2.90;;;;;;;14.81;nan;99836.97;10319957;28;20046;-71
2022/06/16 21:37:47;;;;;;;7.20;2.53;;;;;;;14.54;nan;99727.59;10320039;28;20502;-71
2022/06/16 21:42:49;;;;;;;5.15;2.15;;;;;;;14.56;nan;99746.91;10320555;28;20411;-72
2022/06/16 21:47:54;;;;;;;6.88;2.78;;;;;;;14.53;nan;99736.38;10319441;28;20422;-71
2022/06/16 21:52:56;;;;;;;8.52;3.03;;;;;;;14.44;nan;99704.94;10318848;28;20046;-71
2022/06/16 21:57:58;;;;;;;12.30;3.28;;;;;;;14.38;nan;99686.59;10318629;28;20042;-71
2022/06/16 22:03:05;;;;;;;7.25;3.40;;;;;;;14.25;nan;99633.28;10312696;28;20112;-71
2022/06/16 22:08:07;;;;;;;7.35;2.92;;;;;;;14.11;nan;99600.16;10319046;28;20042;-70
2022/06/16 22:13:11;;;;;;;8.50;2.80;;;;;;;14.06;nan;99580.06;10318302;28;20073;-71
2022/06/16 22:18:29;;;;;;;6.88;3.47;;;;;;;13.89;nan;99517.19;10318920;28;20045;-70
2022/06/16 22:23:36;;;;;;;11.13;2.97;;;;;;;13.72;nan;99460.47;10311381;28;20050;-71
2022/06/16 22:28:41;;;;;;;8.75;3.50;;;;;;;13.61;nan;99422.94;10317948;28;20046;-71
2022/06/16 22:33:45;;;;;;;8.95;3.45;;;;;;;13.54;nan;99403.78;10299690;28;20050;-71
2022/06/16 22:38:47;;;;;;;11.20;3.40;;;;;;;13.44;nan;99362.75;10317692;28;20553;-71
2022/06/16 22:43:57;;;;;;;7.68;3.17;;;;;;;13.26;nan;99306.06;10299413;28;20161;-71
2022/06/16 22:48:59;;;;;;;8.38;3.50;;;;;;;13.20;nan;99286.00;10317580;28;20061;-71
2022/06/16 22:59:21;;;;;;;7.25;3.33;;;;;;;13.00;nan;99215.44;10316868;28;20053;-71
2022/06/16 23:04:23;;;;;;;6.40;3.00;;;;;;;12.88;nan;99177.09;10335192;28;20047;-71
2022/06/16 23:09:33;;;;;;;9.57;3.65;;;;;;;12.87;nan;99183.25;10337126;28;20409;-72
2022/06/16 23:14:34;;;;;;;7.28;3.50;;;;;;;12.70;nan;99119.63;10317223;28;20042;-73
2022/06/16 23:19:36;;;;;;;7.72;3.25;;;;;;;12.54;nan;99064.78;10316760;28;20054;-72
2022/06/16 23:24:38;;;;;;;7.43;3.97;;;;;;;12.29;nan;98967.25;10316507;28;20046;-72
2022/06/16 23:29:39;;;;;;;6.35;3.00;;;;;;;12.18;nan;98928.09;10316179;28;20031;-72
2022/06/16 23:34:44;;;;;;;7.57;3.10;;;;;;;12.19;nan;98940.34;10316545;28;20738;-74
2022/06/16 23:39:45;;;;;;;6.22;3.38;;;;;;;12.16;nan;98943.03;10315854;28;20127;-72
2022/06/16 23:44:47;;;;;;;8.07;3.50;;;;;;;12.14;nan;98929.06;10315717;28;20078;-72
2022/06/16 23:49:54;;;;;;;9.10;3.33;;;;;;;12.10;nan;98918.66;10320819;28;20073;-73
2022/06/16 23:54:56;;;;;;;7.35;3.22;;;;;;;11.97;nan;98871.66;10330399;28;20053;-72
2022/06/16 23:59:57;;;;;;;9.90;3.60;;;;;;;11.72;nan;98787.31;10323990;28;20042;-72
